Time;durP1;ratioP1;P1;durP2;ratioP2;P2;SDS_P1;SDS_P2;PMS_P1;PMS_P2;Temp;Humidity;BMP_temperature;BMP_pressure;BME280_temperature;BME280_humidity;BME280_pressure;Samples;Min_cycle;Max_cycle;Signal;HPM_P1;HPM_P2
2023/12/04 00:00:23;;;;;;;3.17;2.05;;;;;;;-3.75;100.00;101585.06;4905252;29;20191;-67
2023/12/04 00:03:01;;;;;;;9.07;5.80;;;;;;;-3.54;100.00;101576.66;4904581;29;20676;-67
2023/12/04 00:05:51;;;;;;;7.60;5.47;;;;;;;-3.68;100.00;101574.00;4907626;29;20649;-67
2023/12/04 00:08:32;;;;;;;6.30;3.60;;;;;;;-3.43;100.00;101578.63;4888789;29;20625;-65
2023/12/04 00:11:17;;;;;;;6.45;3.05;;;;;;;-3.54;100.00;101575.81;4915956;29;20200;-66
2023/12/04 00:13:58;;;;;;;8.05;3.78;;;;;;;-3.44;100.00;101570.78;4907222;29;20217;-65
2023/12/04 00:16:46;;;;;;;12.20;3.65;;;;;;;-3.51;100.00;101575.59;4910072;29;20246;-66
2023/12/04 00:19:27;;;;;;;12.05;5.93;;;;;;;-3.54;100.00;101573.16;4904019;29;20760;-67
2023/12/04 00:22:09;;;;;;;9.68;4.70;;;;;;;-3.72;100.00;101564.56;4911139;29;20192;-65
2023/12/04 00:24:51;;;;;;;16.23;4.28;;;;;;;-3.73;100.00;101559.38;4913959;29;20733;-65
2023/12/04 00:27:32;;;;;;;13.00;7.47;;;;;;;-3.58;100.00;101569.84;4909987;29;20204;-66
2023/12/04 00:30:10;;;;;;;8.38;4.35;;;;;;;-3.51;100.00;101570.31;4903116;29;20705;-65
2023/12/04 00:32:48;;;;;;;6.28;5.13;;;;;;;-3.59;100.00;101577.88;4883668;29;20297;-66
2023/12/04 00:35:24;;;;;;;10.73;5.47;;;;;;;-3.65;100.00;101567.69;4896037;29;20221;-65
2023/12/04 00:38:06;;;;;;;9.43;4.78;;;;;;;-3.44;100.00;101566.34;4888000;29;20210;-67
2023/12/04 00:40:49;;;;;;;10.48;4.40;;;;;;;-3.44;100.00;101568.16;4897232;29;20198;-68
2023/12/04 00:43:24;;;;;;;3.47;3.08;;;;;;;-3.56;100.00;101577.69;4892788;29;20258;-66
2023/12/04 00:46:04;;;;;;;6.78;3.13;;;;;;;-3.40;100.00;101589.03;4911340;29;20202;-66
2023/12/04 00:48:42;;;;;;;6.28;3.40;;;;;;;-3.53;100.00;101588.06;4886736;29;20573;-67
2023/12/04 00:51:28;;;;;;;18.65;6.57;;;;;;;-3.62;100.00;101583.34;4878535;29;20209;-66
2023/12/04 00:54:11;;;;;;;10.32;4.55;;;;;;;-3.38;100.00;101580.97;4898104;29;20228;-65
2023/12/04 00:56:54;;;;;;;12.23;5.28;;;;;;;-3.58;100.00;101587.50;4898604;29;20673;-66
2023/12/04 00:59:35;;;;;;;9.18;3.58;;;;;;;-3.43;100.00;101597.13;4903717;29;20250;-67
2023/12/04 01:02:19;;;;;;;6.55;4.40;;;;;;;-3.60;100.00;101595.56;4890458;29;20202;-66
2023/12/04 01:05:03;;;;;;;6.68;4.03;;;;;;;-3.57;100.00;101586.56;4889093;29;20278;-67
2023/12/04 01:07:41;;;;;;;6.50;4.90;;;;;;;-3.53;100.00;101582.78;4901640;29;20205;-66
2023/12/04 01:13:14;;;;;;;5.90;4.18;;;;;;;-3.52;100.00;101581.84;4900656;29;20249;-66
2023/12/04 01:15:49;;;;;;;17.75;5.15;;;;;;;-3.47;100.00;101571.81;4929483;29;20324;-66
2023/12/04 01:18:25;;;;;;;10.77;3.45;;;;;;;-3.34;100.00;101567.44;4897301;29;20197;-66
2023/12/04 01:21:11;;;;;;;17.33;4.50;;;;;;;-3.44;100.00;101581.38;4914950;29;20252;-66
2023/12/04 01:23:50;;;;;;;13.02;4.32;;;;;;;-3.55;100.00;101574.09;4893931;29;20197;-65
2023/12/04 01:26:32;;;;;;;28.60;4.22;;;;;;;-3.60;100.00;101571.75;4903080;29;20208;-66
2023/12/04 01:29:19;;;;;;;20.20;4.95;;;;;;;-3.54;100.00;101568.72;4906078;29;20698;-66
2023/12/04 01:31:54;;;;;;;13.50;6.32;;;;;;;-3.60;100.00;101562.97;4899971;29;20204;-67
2023/12/04 01:34:30;;;;;;;12.15;4.60;;;;;;;-3.66;100.00;101560.69;4914783;29;20586;-66
2023/12/04 01:37:11;;;;;;;15.18;5.40;;;;;;;-3.56;100.00;101561.81;4911533;29;20201;-67
2023/12/04 01:39:50;;;;;;;4.25;3.88;;;;;;;-3.65;100.00;101559.75;4920490;29;20181;-64
2023/12/04 01:42:30;;;;;;;11.23;3.72;;;;;;;-3.77;100.00;101540.19;4903468;29;20198;-65
2023/12/04 01:45:19;;;;;;;19.02;5.95;;;;;;;-3.67;100.00;101545.75;4902437;29;20785;-65
2023/12/04 01:48:14;;;;;;;5.00;2.83;;;;;;;-3.66;100.00;101540.38;4914696;29;20284;-67
2023/12/04 01:51:06;;;;;;;10.63;6.57;;;;;;;-3.52;100.00;101542.16;4898329;29;20216;-67
2023/12/04 01:53:52;;;;;;;6.88;3.15;;;;;;;-3.46;100.00;101541.78;4903307;29;20227;-66
2023/12/04 01:56:29;;;;;;;15.88;7.25;;;;;;;-3.38;100.00;101535.97;4891883;29;20206;-66
2023/12/04 01:59:16;;;;;;;7.05;5.07;;;;;;;-3.42;100.00;101535.34;4917198;29;20680;-66
2023/12/04 02:01:58;;;;;;;10.50;5.13;;;;;;;-3.53;100.00;101529.88;4883372;29;20592;-66
2023/12/04 02:04:38;;;;;;;14.52;5.13;;;;;;;-3.50;100.00;101532.34;4878283;29;20224;-67
2023/12/04 02:07:21;;;;;;;8.02;3.40;;;;;;;-3.49;100.00;101536.69;4894661;29;20242;-66
2023/12/04 02:10:01;;;;;;;6.50;2.88;;;;;;;-3.35;100.00;101534.00;4912587;29;20209;-65
2023/12/04 02:12:42;;;;;;;8.63;5.13;;;;;;;-3.45;100.00;101527.59;4912879;29;20201;-65
2023/12/04 02:15:20;;;;;;;4.22;3.22;;;;;;;-3.50;100.00;101534.97;4922564;29;20703;-64
2023/12/04 02:18:02;;;;;;;4.85;3.08;;;;;;;-3.47;100.00;101529.47;4919013;29;20285;-65
2023/12/04 02:20:44;;;;;;;5.78;4.38;;;;;;;-3.50;100.00;101524.41;4914851;29;20201;-65
2023/12/04 02:23:32;;;;;;;11.27;3.20;;;;;;;-3.52;100.00;101521.84;4912965;29;20197;-65
2023/12/04 02:26:22;;;;;;;4.57;4.15;;;;;;;-3.60;100.00;101517.97;4916768;29;20221;-66
2023/12/04 02:29:04;;;;;;;9.13;4.07;;;;;;;-3.62;100.00;101525.16;4902239;29;20253;-66
2023/12/04 02:32:08;;;;;;;3.30;2.15;;;;;;;-3.63;100.00;101513.72;4900089;29;20249;-68
2023/12/04 02:34:48;;;;;;;10.82;5.03;;;;;;;-3.62;100.00;101498.69;4886751;29;20716;-65
2023/12/04 02:37:27;;;;;;;11.73;3.55;;;;;;;-3.66;100.00;101502.50;4903203;29;20236;-66
2023/12/04 02:40:06;;;;;;;7.80;4.45;;;;;;;-3.57;100.00;101502.75;4895818;29;20273;-66
2023/12/04 02:42:51;;;;;;;20.52;5.78;;;;;;;-3.53;100.00;101504.25;4897193;29;20792;-65
2023/12/04 02:45:31;;;;;;;8.45;2.42;;;;;;;-3.40;100.00;101501.69;4897321;29;20353;-66
2023/12/04 02:48:14;;;;;;;10.00;4.30;;;;;;;-3.47;100.00;101496.88;4904003;29;20273;-67
2023/12/04 02:50:55;;;;;;;11.43;4.00;;;;;;;-3.44;100.00;101486.97;4890133;29;20233;-65
2023/12/04 02:58:16;;;;;;;14.35;5.50;;;;;;;-3.60;100.00;101487.09;4908617;29;20737;-66
2023/12/04 03:00:57;;;;;;;8.88;4.82;;;;;;;-3.65;100.00;101477.75;4912114;29;20193;-66
2023/12/04 03:03:46;;;;;;;7.47;3.75;;;;;;;-3.67;100.00;101483.13;4900428;29;20193;-66
2023/12/04 03:06:30;;;;;;;8.93;5.13;;;;;;;-3.65;100.00;101478.59;4887435;29;20292;-65
2023/12/04 03:09:08;;;;;;;16.60;7.97;;;;;;;-3.64;100.00;101475.00;4894958;29;20193;-65
2023/12/04 03:11:46;;;;;;;6.65;2.83;;;;;;;-3.68;100.00;101478.78;4916568;29;20224;-65
2023/12/04 03:14:30;;;;;;;15.10;5.75;;;;;;;-3.56;100.00;101471.88;4920808;29;20685;-67
2023/12/04 03:17:12;;;;;;;13.75;4.78;;;;;;;-3.55;100.00;101470.91;4926227;29;20216;-66
2023/12/04 03:19:49;;;;;;;7.38;4.63;;;;;;;-3.53;100.00;101461.06;4921083;29;20204;-67
2023/12/04 03:22:35;;;;;;;11.40;5.50;;;;;;;-3.70;100.00;101459.53;4935198;29;20195;-67
2023/12/04 03:25:19;;;;;;;12.18;2.53;;;;;;;-3.64;100.00;101456.50;4907458;29;20255;-66
2023/12/04 03:28:07;;;;;;;13.27;4.22;;;;;;;-3.70;100.00;101466.59;4937482;29;20201;-66
2023/12/04 03:30:50;;;;;;;3.47;3.10;;;;;;;-3.63;100.00;101449.41;4917387;29;20219;-66
2023/12/04 03:33:34;;;;;;;6.97;4.80;;;;;;;-3.57;100.00;101457.78;4936757;29;20269;-66
2023/12/04 03:36:14;;;;;;;11.95;3.97;;;;;;;-3.44;100.00;101455.22;4936438;29;20268;-65
2023/12/04 03:39:17;;;;;;;19.55;6.38;;;;;;;-3.53;100.00;101445.19;4920590;29;20199;-66
2023/12/04 03:42:06;;;;;;;12.88;3.70;;;;;;;-3.56;100.00;101450.69;4919917;29;20277;-66
2023/12/04 03:44:43;;;;;;;10.88;5.03;;;;;;;-3.50;100.00;101463.53;4919778;29;20275;-64
2023/12/04 03:47:26;;;;;;;7.43;5.82;;;;;;;-3.59;100.00;101450.91;4933509;29;20220;-66
2023/12/04 03:50:04;;;;;;;6.90;2.92;;;;;;;-3.58;100.00;101448.13;4938677;29;20182;-66
2023/12/04 03:52:43;;;;;;;11.45;6.13;;;;;;;-3.58;100.00;101442.00;4921715;29;20260;-65
2023/12/04 03:55:22;;;;;;;6.88;5.45;;;;;;;-3.33;100.00;101441.25;4935137;29;20282;-65
2023/12/04 03:58:01;;;;;;;9.00;4.32;;;;;;;-3.32;100.00;101437.66;4947882;29;20187;-65
2023/12/04 04:00:40;;;;;;;10.68;4.95;;;;;;;-3.29;100.00;101429.56;4916081;29;20691;-65
2023/12/04 04:03:22;;;;;;;18.75;5.60;;;;;;;-3.27;100.00;101432.94;4910454;29;20192;-66
2023/12/04 04:06:05;;;;;;;7.30;4.15;;;;;;;-3.27;100.00;101419.69;4901107;29;20197;-67
2023/12/04 04:08:45;;;;;;;8.85;6.05;;;;;;;-3.18;100.00;101422.59;4904122;29;20212;-68
2023/12/04 04:11:21;;;;;;;5.78;3.38;;;;;;;-3.11;100.00;101418.59;4913308;29;20289;-68
2023/12/04 04:14:12;;;;;;;10.30;3.22;;;;;;;-3.00;100.00;101427.63;4905318;29;20227;-66
2023/12/04 04:16:48;;;;;;;8.38;3.17;;;;;;;-2.85;100.00;101426.56;4923888;29;20196;-65
2023/12/04 04:19:29;;;;;;;13.93;6.20;;;;;;;-3.00;100.00;101422.31;4929470;29;20200;-66
2023/12/04 04:22:08;;;;;;;12.27;5.80;;;;;;;-3.05;100.00;101417.34;4945582;29;20185;-65
2023/12/04 04:24:49;;;;;;;16.20;4.78;;;;;;;-3.11;100.00;101425.69;4917197;29;20252;-65
2023/12/04 04:27:27;;;;;;;16.35;4.65;;;;;;;-3.07;100.00;101420.09;4934097;29;20192;-65
2023/12/04 04:30:06;;;;;;;8.05;3.70;;;;;;;-3.12;100.00;101430.13;4922531;29;20205;-66
2023/12/04 04:32:46;;;;;;;13.75;5.43;;;;;;;-3.12;100.00;101435.41;4929774;29;20793;-65
2023/12/04 04:35:24;;;;;;;11.60;5.40;;;;;;;-3.19;100.00;101434.13;4911549;29;20588;-66
2023/12/04 04:38:07;;;;;;;7.75;4.55;;;;;;;-3.28;100.00;101429.44;4926332;29;20230;-66
2023/12/04 04:40:46;;;;;;;13.73;5.15;;;;;;;-3.13;100.00;101420.47;4916469;29;20205;-65
2023/12/04 04:43:24;;;;;;;9.18;4.72;;;;;;;-3.25;100.00;101429.25;4923444;29;20224;-67
2023/12/04 04:46:00;;;;;;;5.03;3.47;;;;;;;-3.28;100.00;101421.50;4913232;29;20572;-68
2023/12/04 04:48:42;;;;;;;13.02;3.00;;;;;;;-3.26;100.00;101422.25;4915921;29;20197;-65
2023/12/04 04:51:29;;;;;;;5.82;4.65;;;;;;;-3.29;100.00;101426.91;4921045;29;20213;-66
2023/12/04 04:54:17;;;;;;;12.77;3.88;;;;;;;-3.15;100.00;101416.25;4933688;29;20257;-66
2023/12/04 04:57:02;;;;;;;8.00;4.18;;;;;;;-3.08;100.00;101409.59;4938886;29;20192;-66
2023/12/04 04:59:42;;;;;;;6.40;5.00;;;;;;;-3.06;100.00;101415.63;4896555;29;20680;-66
2023/12/04 05:02:23;;;;;;;15.32;5.75;;;;;;;-3.19;100.00;101407.66;4917906;29;20189;-65
2023/12/04 05:05:13;;;;;;;6.72;6.00;;;;;;;-3.11;100.00;101410.66;4938240;29;20303;-65
2023/12/04 05:08:03;;;;;;;10.25;4.35;;;;;;;-3.21;100.00;101404.28;4909817;29;20619;-66
2023/12/04 05:10:45;;;;;;;21.05;7.80;;;;;;;-3.23;100.00;101411.44;4927098;29;20200;-67
2023/12/04 05:14:18;;;;;;;5.55;4.20;;;;;;;-3.35;100.00;101406.13;4930901;29;20272;-66
2023/12/04 05:16:57;;;;;;;7.63;3.42;;;;;;;-3.34;100.00;101405.19;4911285;29;20197;-66
2023/12/04 05:19:37;;;;;;;7.57;6.72;;;;;;;-3.43;100.00;101401.31;4923363;29;20199;-66
2023/12/04 05:22:22;;;;;;;7.53;4.65;;;;;;;-3.47;100.00;101391.03;4935738;29;20192;-66
2023/12/04 05:25:00;;;;;;;16.45;5.40;;;;;;;-3.51;100.00;101385.09;4928241;29;20225;-67
2023/12/04 05:27:35;;;;;;;19.45;4.57;;;;;;;-3.42;100.00;101375.72;4917838;29;20200;-66
2023/12/04 05:30:17;;;;;;;10.02;3.95;;;;;;;-3.44;100.00;101377.63;4925334;29;20192;-67
2023/12/04 05:33:08;;;;;;;6.45;4.13;;;;;;;-3.54;100.00;101375.59;4929262;29;20209;-67
2023/12/04 05:35:45;;;;;;;7.55;3.70;;;;;;;-3.64;100.00;101376.28;4928913;29;20606;-68
2023/12/04 05:38:28;;;;;;;5.85;3.15;;;;;;;-3.54;100.00;101374.75;4929787;29;20197;-66
2023/12/04 05:41:11;;;;;;;9.98;5.32;;;;;;;-3.42;100.00;101368.63;4907469;29;20223;-66
2023/12/04 05:43:48;;;;;;;7.45;5.00;;;;;;;-3.50;100.00;101373.59;4927622;29;20208;-65
2023/12/04 05:46:27;;;;;;;10.98;6.88;;;;;;;-3.57;100.00;101366.97;4929530;29;20206;-64
2023/12/04 05:49:02;;;;;;;8.60;4.70;;;;;;;-3.47;100.00;101364.56;4907522;29;20197;-67
2023/12/04 05:51:47;;;;;;;8.50;4.10;;;;;;;-3.49;100.00;101362.06;4927503;29;20208;-66
2023/12/04 05:54:29;;;;;;;8.30;4.45;;;;;;;-3.55;100.00;101375.69;4920868;29;20367;-66
2023/12/04 05:57:09;;;;;;;6.18;3.20;;;;;;;-3.54;100.00;101369.44;4941084;29;20206;-66
2023/12/04 05:59:45;;;;;;;6.43;4.25;;;;;;;-3.45;100.00;101360.91;4933740;29;20540;-66
2023/12/04 06:02:27;;;;;;;10.65;5.13;;;;;;;-3.53;100.00;101356.09;4928514;29;20703;-65
2023/12/04 06:05:04;;;;;;;10.40;4.88;;;;;;;-3.38;100.00;101362.16;4919408;29;20221;-66
2023/12/04 06:07:41;;;;;;;11.68;6.18;;;;;;;-3.27;100.00;101359.66;4915317;29;20200;-68
2023/12/04 06:10:26;;;;;;;38.35;7.82;;;;;;;-3.18;100.00;101360.84;4912246;29;20291;-65
2023/12/04 06:13:06;;;;;;;6.22;2.40;;;;;;;-3.10;100.00;101364.66;4923267;29;20212;-67
2023/12/04 06:15:47;;;;;;;8.32;3.35;;;;;;;-3.15;100.00;101364.13;4938006;29;20751;-66
2023/12/04 06:18:30;;;;;;;9.30;2.50;;;;;;;-3.00;100.00;101364.06;4937733;29;20258;-67
2023/12/04 06:21:18;;;;;;;3.33;1.85;;;;;;;-3.03;100.00;101365.13;4935021;29;20203;-66
2023/12/04 06:23:57;;;;;;;2.88;1.90;;;;;;;-3.02;100.00;101360.66;4935987;29;20235;-66
2023/12/04 06:26:37;;;;;;;9.18;3.45;;;;;;;-2.95;100.00;101356.66;4941044;29;20211;-67
2023/12/04 06:29:22;;;;;;;8.48;4.93;;;;;;;-2.85;100.00;101360.34;4914823;29;20200;-67
2023/12/04 06:32:01;;;;;;;14.57;8.52;;;;;;;-2.74;100.00;101365.78;4941716;29;20583;-67
2023/12/04 06:34:55;;;;;;;10.05;4.18;;;;;;;-2.70;100.00;101362.81;4932399;29;20599;-65
2023/12/04 06:37:53;;;;;;;9.52;3.95;;;;;;;-2.75;100.00;101356.97;4915473;29;20200;-67
2023/12/04 06:40:32;;;;;;;13.43;5.97;;;;;;;-2.66;100.00;101352.84;4925164;29;20207;-65
2023/12/04 06:43:12;;;;;;;13.82;3.85;;;;;;;-2.72;100.00;101359.44;4939391;29;20195;-67
2023/12/04 06:48:44;;;;;;;10.40;4.03;;;;;;;-2.63;100.00;101348.19;4919522;29;20238;-66
2023/12/04 06:51:26;;;;;;;8.05;3.05;;;;;;;-2.60;100.00;101347.13;4927152;29;20203;-65
2023/12/04 06:54:05;;;;;;;5.85;4.72;;;;;;;-2.57;100.00;101346.94;4903339;29;20221;-65
2023/12/04 06:56:41;;;;;;;6.43;3.60;;;;;;;-2.51;100.00;101341.16;4922188;29;20205;-70
2023/12/04 06:59:17;;;;;;;9.55;3.28;;;;;;;-2.56;100.00;101338.00;4933182;29;20209;-68
2023/12/04 07:01:54;;;;;;;9.02;5.38;;;;;;;-2.49;100.00;101336.63;4919204;29;20283;-67
2023/12/04 07:04:31;;;;;;;3.50;3.00;;;;;;;-2.37;100.00;101335.75;4907016;29;20236;-65
2023/12/04 07:07:18;;;;;;;3.38;3.10;;;;;;;-2.43;100.00;101332.69;4926310;29;20700;-66
2023/12/04 07:10:00;;;;;;;4.50;4.07;;;;;;;-2.33;100.00;101324.00;4920801;29;20573;-65
2023/12/04 07:12:46;;;;;;;12.45;3.75;;;;;;;-2.41;100.00;101320.16;4929386;29;20247;-66
2023/12/04 07:15:23;;;;;;;8.52;4.00;;;;;;;-2.36;100.00;101308.28;4928639;29;20754;-69
2023/12/04 07:18:11;;;;;;;5.53;3.80;;;;;;;-2.36;100.00;101313.59;4923180;29;20575;-66
2023/12/04 07:20:51;;;;;;;9.73;3.92;;;;;;;-2.28;100.00;101315.72;4914592;29;20267;-66
2023/12/04 07:23:47;;;;;;;7.25;4.57;;;;;;;-2.21;100.00;101312.50;4920789;29;20339;-67
2023/12/04 07:26:30;;;;;;;8.38;4.20;;;;;;;-2.13;100.00;101313.75;4919083;29;20192;-67
2023/12/04 07:29:24;;;;;;;4.80;2.90;;;;;;;-2.13;100.00;101321.72;4922095;29;20209;-65
2023/12/04 07:32:14;;;;;;;7.72;3.30;;;;;;;-2.01;100.00;101315.50;4914701;29;20201;-67
2023/12/04 07:35:01;;;;;;;5.68;2.83;;;;;;;-1.89;100.00;101317.28;4913242;29;20271;-67
2023/12/04 07:37:45;;;;;;;8.10;3.13;;;;;;;-1.87;100.00;101325.97;4924316;29;20678;-66
2023/12/04 07:40:30;;;;;;;3.30;2.97;;;;;;;-1.81;99.82;101322.88;4931207;29;20284;-67
2023/12/04 07:43:08;;;;;;;5.13;2.53;;;;;;;-1.77;98.34;101319.03;4920602;29;20189;-66
2023/12/04 07:45:53;;;;;;;10.90;3.58;;;;;;;-1.71;98.47;101317.72;4927760;29;20220;-65
2023/12/04 07:48:37;;;;;;;8.45;2.75;;;;;;;-1.68;98.88;101309.53;4942343;29;20207;-67
2023/12/04 07:54:19;;;;;;;4.15;3.67;;;;;;;-1.68;98.95;101310.38;4924927;29;20284;-67
2023/12/04 07:57:01;;;;;;;7.90;3.05;;;;;;;-1.57;97.92;101312.25;4911080;29;20213;-64
2023/12/04 07:59:36;;;;;;;6.15;2.97;;;;;;;-1.50;97.16;101313.50;4910956;29;20245;-65
2023/12/04 08:02:16;;;;;;;5.57;2.70;;;;;;;-1.43;96.96;101318.22;4921804;29;20208;-67
2023/12/04 08:04:57;;;;;;;7.45;5.28;;;;;;;-1.52;96.54;101305.63;4912390;29;20252;-66
2023/12/04 08:07:35;;;;;;;4.38;1.95;;;;;;;-1.53;96.46;101311.06;4914064;29;20201;-66
2023/12/04 08:10:13;;;;;;;5.85;3.95;;;;;;;-1.50;96.12;101302.88;4921088;29;20204;-67
2023/12/04 08:12:52;;;;;;;16.40;4.35;;;;;;;-1.36;95.43;101305.34;4920905;29;20704;-67
2023/12/04 08:15:27;;;;;;;5.13;3.47;;;;;;;-1.36;95.78;101308.84;4900775;29;20261;-66
2023/12/04 08:18:03;;;;;;;6.50;3.72;;;;;;;-1.19;94.86;101312.88;4901072;29;20673;-66
2023/12/04 08:20:38;;;;;;;8.40;4.20;;;;;;;-1.05;94.94;101310.00;4892935;29;20193;-67
2023/12/04 08:23:12;;;;;;;14.65;5.90;;;;;;;-1.05;93.44;101306.50;4908239;29;20581;-67
2023/12/04 08:25:45;;;;;;;10.18;4.90;;;;;;;-1.04;93.36;101306.38;4908134;29;20216;-66
2023/12/04 08:28:19;;;;;;;7.20;3.17;;;;;;;-1.00;93.68;101301.66;4899488;29;20210;-65
2023/12/04 08:30:52;;;;;;;8.85;4.25;;;;;;;-0.63;92.39;101303.16;4900465;29;20201;-68
2023/12/04 08:33:25;;;;;;;8.20;4.85;;;;;;;-0.77;92.10;101310.50;4891365;29;20225;-67
2023/12/04 08:36:00;;;;;;;10.95;3.38;;;;;;;-0.44;91.75;101315.88;4897058;29;20323;-66
2023/12/04 08:38:36;;;;;;;5.70;3.22;;;;;;;-0.36;89.61;101299.28;4881415;29;20221;-66
2023/12/04 08:41:09;;;;;;;3.25;2.50;;;;;;;-0.40;89.29;101297.84;4908754;29;20494;-68
2023/12/04 08:43:41;;;;;;;6.20;5.22;;;;;;;-0.38;88.66;101303.88;4898042;29;20194;-67
2023/12/04 08:46:15;;;;;;;4.07;2.53;;;;;;;-0.43;86.84;101297.13;4898066;29;20201;-67
2023/12/04 08:48:49;;;;;;;11.52;4.57;;;;;;;-0.48;86.79;101298.44;4910340;29;20230;-68
2023/12/04 08:51:24;;;;;;;5.95;3.97;;;;;;;-0.64;87.37;101293.50;4897519;29;20293;-67
2023/12/04 08:54:00;;;;;;;11.10;5.35;;;;;;;-0.58;88.44;101298.31;4894517;29;20221;-67
2023/12/04 08:56:47;;;;;;;7.82;4.45;;;;;;;-0.48;87.83;101293.97;4910626;29;20249;-66
2023/12/04 08:59:23;;;;;;;5.65;3.22;;;;;;;-0.52;88.20;101292.53;4888029;29;20206;-66
2023/12/04 09:01:58;;;;;;;6.18;4.22;;;;;;;-0.48;88.19;101299.28;4897315;29;20221;-67
2023/12/04 09:04:33;;;;;;;11.57;3.42;;;;;;;-0.35;88.17;101293.03;4912677;29;20229;-66
2023/12/04 09:07:05;;;;;;;13.07;3.22;;;;;;;-0.17;86.86;101296.84;4897132;29;20587;-64
2023/12/04 09:09:46;;;;;;;15.20;3.63;;;;;;;-0.40;86.64;101300.50;4895174;29;20185;-66
2023/12/04 09:12:19;;;;;;;13.77;4.55;;;;;;;-0.31;86.89;101299.78;4923971;29;20212;-66
2023/12/04 09:14:56;;;;;;;4.35;3.53;;;;;;;-0.31;86.66;101297.97;4916334;29;20319;-67
2023/12/04 09:17:32;;;;;;;8.05;3.72;;;;;;;-0.32;86.71;101298.94;4910805;29;20196;-66
2023/12/04 09:20:13;;;;;;;11.95;3.45;;;;;;;-0.29;86.45;101297.84;4928446;29;20198;-66
2023/12/04 09:22:51;;;;;;;6.80;3.75;;;;;;;-0.44;86.78;101300.72;4931025;29;20193;-65
2023/12/04 09:25:48;;;;;;;6.20;3.80;;;;;;;-0.51;87.53;101298.69;4910627;29;20213;-65
2023/12/04 09:28:22;;;;;;;4.70;2.45;;;;;;;-0.36;87.34;101292.16;4916146;29;20192;-65
2023/12/04 09:31:00;;;;;;;6.00;3.63;;;;;;;-0.31;87.15;101297.13;4911084;29;20571;-66
2023/12/04 09:33:38;;;;;;;8.25;3.72;;;;;;;-0.49;86.48;101296.78;4920534;29;20426;-67
2023/12/04 09:36:14;;;;;;;5.57;3.17;;;;;;;-0.40;87.72;101295.19;4920293;29;20197;-65
2023/12/04 09:38:50;;;;;;;7.22;3.10;;;;;;;-0.21;86.03;101287.44;4918415;29;20260;-64
2023/12/04 09:44:33;;;;;;;11.27;4.03;;;;;;;-0.14;85.75;101288.63;4936770;29;20231;-64
2023/12/04 09:47:12;;;;;;;5.63;2.63;;;;;;;-0.13;85.26;101285.00;4898653;29;20287;-64
2023/12/04 09:49:46;;;;;;;7.40;6.50;;;;;;;-0.12;85.75;101290.19;4925059;29;20220;-63
2023/12/04 09:52:23;;;;;;;8.38;5.10;;;;;;;-0.09;85.14;101286.44;4932673;29;20207;-61
2023/12/04 09:54:58;;;;;;;10.55;4.20;;;;;;;-0.19;86.15;101288.13;4916177;29;20256;-64
2023/12/04 09:57:40;;;;;;;8.32;4.15;;;;;;;-0.29;85.76;101279.25;4921043;29;20286;-65
2023/12/04 10:00:23;;;;;;;7.05;4.47;;;;;;;-0.51;87.06;101280.94;4910416;29;20197;-65
2023/12/04 10:03:05;;;;;;;16.13;5.10;;;;;;;-0.36;87.00;101270.91;4923489;29;20193;-65
2023/12/04 10:05:48;;;;;;;4.72;4.05;;;;;;;-0.38;86.40;101266.66;4917258;29;20236;-63
2023/12/04 10:08:34;;;;;;;8.85;3.30;;;;;;;-0.08;86.11;101274.81;4934428;29;20632;-64
2023/12/04 10:11:09;;;;;;;7.70;2.58;;;;;;;0.12;84.94;101270.53;4924865;29;20323;-63
2023/12/04 10:13:51;;;;;;;5.25;2.17;;;;;;;0.18;83.84;101268.22;4911989;29;20584;-64
2023/12/04 10:16:40;;;;;;;6.65;5.47;;;;;;;0.22;83.05;101267.00;4903765;29;20212;-65
2023/12/04 10:19:25;;;;;;;11.23;4.53;;;;;;;0.32;82.71;101259.94;4898726;29;20269;-63
2023/12/04 10:22:03;;;;;;;5.68;4.22;;;;;;;0.12;83.90;101259.91;4898609;29;20697;-65
2023/12/04 10:24:42;;;;;;;14.05;4.75;;;;;;;0.23;83.42;101258.06;4897555;29;20224;-63
2023/12/04 10:27:20;;;;;;;14.43;4.93;;;;;;;0.33;82.90;101248.34;4893477;29;20196;-64
2023/12/04 10:29:59;;;;;;;6.30;3.42;;;;;;;0.60;82.68;101239.84;4900277;29;20253;-63
2023/12/04 10:32:38;;;;;;;5.93;4.30;;;;;;;0.83;80.98;101246.72;4913858;29;20201;-64
2023/12/04 10:35:20;;;;;;;5.57;3.72;;;;;;;0.58;80.77;101232.97;4903450;29;20256;-63
2023/12/04 10:38:02;;;;;;;3.42;2.95;;;;;;;0.71;80.59;101239.78;4922260;29;20750;-64
2023/12/04 10:40:42;;;;;;;3.65;3.35;;;;;;;0.74;80.15;101231.50;4922367;29;20229;-64
2023/12/04 10:43:21;;;;;;;6.78;4.28;;;;;;;0.81;80.12;101226.50;4902777;29;20202;-64
2023/12/04 10:46:02;;;;;;;3.40;3.10;;;;;;;1.07;79.08;101216.25;4897726;29;20217;-62
2023/12/04 10:48:47;;;;;;;13.95;4.57;;;;;;;1.31;78.69;101209.63;4904784;29;20204;-63
2023/12/04 10:51:24;;;;;;;13.27;4.25;;;;;;;1.20;77.52;101212.41;4893223;29;20197;-63
2023/12/04 10:54:00;;;;;;;4.25;3.22;;;;;;;1.11;78.56;101210.56;4901949;29;20228;-65
2023/12/04 10:56:41;;;;;;;6.35;2.92;;;;;;;0.95;79.43;101202.19;4894896;29;20204;-64
2023/12/04 10:59:42;;;;;;;9.63;4.68;;;;;;;0.88;79.92;101201.00;4903036;29;20202;-63
2023/12/04 11:02:30;;;;;;;3.70;2.75;;;;;;;0.86;79.65;101197.66;4914830;29;20197;-66
2023/12/04 11:05:17;;;;;;;5.13;4.22;;;;;;;0.93;79.90;101196.13;4893407;29;20545;-63
2023/12/04 11:08:10;;;;;;;5.50;2.83;;;;;;;0.74;80.21;101188.03;4893052;29;20291;-64
2023/12/04 11:11:01;;;;;;;12.30;3.72;;;;;;;0.78;80.28;101179.66;4902074;29;20201;-62
2023/12/04 11:13:48;;;;;;;5.35;2.53;;;;;;;0.49;81.30;101175.97;4914969;29;20210;-62
2023/12/04 11:16:35;;;;;;;4.60;2.63;;;;;;;0.27;81.97;101171.63;4881999;29;20565;-62
2023/12/04 11:19:37;;;;;;;4.22;2.13;;;;;;;0.12;83.11;101175.59;4886389;29;20198;-63
2023/12/04 11:22:24;;;;;;;6.85;4.55;;;;;;;0.25;83.97;101170.06;4919413;29;20220;-63
2023/12/04 11:25:06;;;;;;;3.03;2.70;;;;;;;0.48;82.99;101162.81;4905014;29;20722;-63
2023/12/04 11:27:45;;;;;;;4.25;3.17;;;;;;;0.64;82.11;101160.50;4904963;29;20232;-63
2023/12/04 11:30:27;;;;;;;4.95;2.78;;;;;;;0.79;81.59;101160.03;4911590;29;20284;-64
2023/12/04 11:33:22;;;;;;;3.13;2.83;;;;;;;0.65;81.46;101162.19;4908680;29;20224;-64
2023/12/04 11:36:10;;;;;;;10.40;3.92;;;;;;;0.41;82.50;101162.47;4907627;29;20304;-64
2023/12/04 11:38:54;;;;;;;9.02;4.80;;;;;;;0.47;82.95;101161.13;4917904;29;20265;-64
2023/12/04 11:41:36;;;;;;;4.78;2.10;;;;;;;0.64;82.31;101163.16;4898233;29;20689;-60
2023/12/04 11:44:29;;;;;;;3.05;2.10;;;;;;;0.47;82.47;101150.47;4899162;29;20243;-64
2023/12/04 11:47:14;;;;;;;11.13;5.43;;;;;;;0.73;82.27;101149.06;4889876;29;20229;-61
2023/12/04 11:49:51;;;;;;;10.40;3.30;;;;;;;0.60;82.22;101154.59;4907481;29;20208;-62
2023/12/04 11:52:51;;;;;;;5.80;3.05;;;;;;;0.79;81.62;101148.53;4888233;29;20192;-64
2023/12/04 11:55:45;;;;;;;6.00;2.13;;;;;;;0.78;81.67;101139.69;4899055;29;20228;-64
2023/12/04 11:58:28;;;;;;;8.05;4.40;;;;;;;1.08;81.24;101146.84;4902524;29;20575;-63
2023/12/04 12:01:05;;;;;;;3.47;2.65;;;;;;;1.02;81.08;101143.84;4898064;29;20202;-64
2023/12/04 12:03:42;;;;;;;7.40;4.63;;;;;;;1.01;80.14;101137.72;4919566;29;20189;-64
2023/12/04 12:06:18;;;;;;;6.65;5.50;;;;;;;0.99;80.32;101139.66;4901280;29;20297;-64
2023/12/04 12:09:07;;;;;;;4.97;3.47;;;;;;;1.05;79.86;101135.59;4896204;29;20208;-64
2023/12/04 12:11:47;;;;;;;8.82;3.08;;;;;;;1.10;80.48;101130.72;4919036;29;20638;-63
2023/12/04 12:14:27;;;;;;;4.57;2.13;;;;;;;1.05;79.64;101131.13;4893993;29;20221;-64
2023/12/04 12:17:07;;;;;;;4.93;2.38;;;;;;;1.04;79.94;101126.75;4908618;29;20284;-63
2023/12/04 12:19:51;;;;;;;3.17;2.35;;;;;;;1.00;80.98;101114.69;4901178;29;20207;-62
2023/12/04 12:22:30;;;;;;;4.20;3.28;;;;;;;0.71;81.44;101113.72;4897141;29;20212;-65
2023/12/04 12:28:07;;;;;;;3.83;3.35;;;;;;;0.75;81.82;101109.81;4915682;29;20204;-64
2023/12/04 12:30:49;;;;;;;7.32;2.35;;;;;;;0.79;82.26;101100.56;4900522;29;20209;-65
2023/12/04 12:33:27;;;;;;;3.08;1.73;;;;;;;0.72;82.06;101099.44;4905628;29;20207;-62
2023/12/04 12:36:12;;;;;;;3.97;2.92;;;;;;;0.59;82.95;101093.47;4900175;29;20239;-63
2023/12/04 12:38:56;;;;;;;4.57;3.55;;;;;;;0.65;83.52;101092.94;4908322;29;20205;-65
2023/12/04 12:41:35;;;;;;;4.80;3.13;;;;;;;0.78;83.59;101097.06;4907977;29;20196;-65
2023/12/04 12:44:16;;;;;;;4.40;2.60;;;;;;;0.88;83.37;101094.44;4896857;29;20223;-65